Архив погоды в Мценске

Метеограмма Мценск
Пятница, 27 Апреля
Время местн. Темп Ветер Видим Явления Облачность нижн/средн/верх Атм. давл. Влжн Точка росы ВНГО R Сост. почвы Tg s
Напр Скр Прв ур.ст ур.м изм
06:00 +3.3° Ю-В 1 - 21 км - преимущественно облачно 742 761 +0.8 79% +0.1° 1 км - - - -
03:00 +7.3° З 2 - 10 км - переменная облачность 741 760 +0.8 61% +0.2° более 2.5 км - - - -
00:00 +7.8° Ю-З 2 - 10 км - переменная облачность 741 759 +1.2 61% +0.8° более 2.5 км - - - -
Четверг, 26 Апреля
Время местн. Темп Ветер Видим Явления Облачность нижн/средн/верх Атм. давл. Влжн Точка росы ВНГО R Сост. почвы Tg s
Напр Скр Прв ур.ст ур.м изм
21:00 +11° З,С-З 2 - 10 км - переменная облачность 740 758 +2.4 50% +0.9° 1 км 0 - - -
18:00 +15.8° З 5 11 35 км - переменная облачность 737 755 +2 38% +1.5° 1 км - - - -
15:00 +16.7° З 7 13 28 км - переменная облачность 735 753 +1.1 45% +4.7° 1 км - - - -
12:00 +15.5° З 5 12 21 км - облачно с прояснениями 734 752 +0.8 69% +9.8° 1 км - - - -
09:00 +11.1° Ю 2 - 7 км слабый ливневый дождь облачно 733 751 -1.8 92% +9.9° 1 км 4 - - -
06:00 +9.8° Ю 2 - 5 км ливневый дождь облачно 735 753 -0.9 95% +9° 1 км - - - -
03:00 +9.8° штиль 0 - 4 км дымка {ливневые осадки} облачно с прояснениями 736 754 -1.4 90% +8.2° 1 км - - - -
00:00 +9.8° штиль 0 - 4 км дымка {ливневые осадки} облачно 737 756 -0.3 92% +8.6° 1 км - - - -
Среда, 25 Апреля
Время местн. Темп Ветер Видим Явления Облачность нижн/средн/верх Атм. давл. Влжн Точка росы ВНГО R Сост. почвы Tg s
Напр Скр Прв ур.ст ур.м изм
21:00 +10.7° штиль 0 - 4 км слабый ливневый дождь облачно 738 756 +0.2 91% +9.3° 1 км 0.5 - - -
18:00 +15.3° Ю-З 3 - 28 км - облачно 738 755 -0.6 55% +6.2° 1 км - - - -
15:00 +16° З,Ю-З 3 - 30 км - преимущественно облачно 738 756 -0.6 40% +2.5° 1 км - - - -
12:00 +15° Ю,Ю-З 3 - 27 км - облачно 739 756 -0.3 55% +6.1° 1 км - - - -
09:00 +11.2° З,Ю-З 1 - 24 км - облачно с прояснениями 739 757 +0.3 67% +5.3° 1 км 0 - - -
06:00 +7.2° З 3 - 20 км - облачно с прояснениями 736 757 -0.3 77% +3.4° 1 км - - - -
03:00 +7.7° Ю,Ю-В 1 - 10 км - облачно 739 757 -1 72% +3° 1 км - - - -
00:00 +8° Ю,Ю-В 1 - 10 км - облачно 740 758 -0.8 64% +1.7° 1 км - - - -
Вторник, 24 Апреля
Время местн. Темп Ветер Видим Явления Облачность нижн/средн/верх Атм. давл. Влжн Точка росы ВНГО R Сост. почвы Tg s
Напр Скр Прв ур.ст ур.м изм
21:00 +9.6° штиль 0 - 10 км - облачно 741 759 -0.3 54% +0.8° 1 км 0 - - -
18:00 +12.1° З,С-З 2 - 29 км - облачно 741 759 -1 39% -1.4° - - - - -
15:00 +12.4° З 3 - 30 км - преимущественно облачно 742 760 -1.2 30% -4.5° - - - - -
12:00 +10.6° З,С-З 2 - 30 км - облачно с прояснениями 743 761 -0.5 32% -5.3° более 2.5 км - - - -
09:00 +6.8° З 2 - 28 км - переменная облачность 744 762 +0.5 43% -4.8° более 2.5 км 0 Влажная (без луж) - -
06:00 -1° Ю-З 1 - 25 км - переменная облачность 743 762 +0.1 71% -5.6° более 2.5 км - - - -
03:00 -0.9° штиль 0 - 10 км - ясно 743 762 +0.1 73% -5.1° более 2.5 км - - - -